Time;durP1;ratioP1;P1;durP2;ratioP2;P2;SDS_P1;SDS_P2;PMS_P1;PMS_P2;Temp;Humidity;BMP_temperature;BMP_pressure;BME280_temperature;BME280_humidity;BME280_pressure;Samples;Min_cycle;Max_cycle;Signal;HPM_P1;HPM_P2
2022/06/12 00:01:27;;;;;;;8.67;2.20;;;14.60;99.90;;;;;;5017973;28;20937;-83
2022/06/12 00:03:53;;;;;;;8.47;2.80;;;14.50;99.90;;;;;;5035645;28;20451;-82
2022/06/12 00:06:21;;;;;;;6.90;2.90;;;14.40;99.90;;;;;;5035378;28;20407;-83
2022/06/12 00:08:47;;;;;;;5.53;1.87;;;14.20;99.90;;;;;;5035590;28;20175;-83
2022/06/12 00:11:16;;;;;;;5.80;2.13;;;14.20;99.90;;;;;;5035539;28;20406;-83
2022/06/12 00:13:47;;;;;;;6.30;2.80;;;14.20;99.90;;;;;;5035607;28;20435;-83
2022/06/12 00:16:17;;;;;;;6.70;2.70;;;14.10;99.90;;;;;;5035402;28;20918;-83
2022/06/12 00:18:43;;;;;;;7.87;2.43;;;14.20;99.90;;;;;;5035377;28;20424;-83
2022/06/12 00:21:10;;;;;;;9.20;3.10;;;14.20;99.90;;;;;;5035029;28;20449;-83
2022/06/12 00:23:56;;;;;;;9.40;2.80;;;14.20;99.90;;;;;;5035242;28;21011;-83
2022/06/12 00:26:38;;;;;;;10.90;2.27;;;14.20;99.90;;;;;;5034743;28;20930;-84
2022/06/12 00:29:12;;;;;;;6.87;2.17;;;14.10;99.90;;;;;;5017571;28;20462;-83
2022/06/12 00:31:58;;;;;;;6.77;2.80;;;14.00;99.90;;;;;;5034714;28;20470;-83
2022/06/12 00:34:28;;;;;;;6.00;2.03;;;13.90;99.90;;;;;;5035269;28;20828;-83
2022/06/12 00:36:54;;;;;;;6.60;2.50;;;13.90;99.90;;;;;;5034767;28;20478;-83
2022/06/12 00:39:20;;;;;;;7.30;1.83;;;13.90;99.90;;;;;;5035150;28;20498;-83
2022/06/12 00:41:49;;;;;;;5.70;2.27;;;13.90;99.90;;;;;;5035001;28;20458;-83
2022/06/12 00:44:18;;;;;;;8.57;2.23;;;14.00;99.90;;;;;;5034939;28;20422;-83
2022/06/12 00:46:49;;;;;;;6.57;2.17;;;14.20;99.90;;;;;;5034917;28;20414;-83
2022/06/12 00:49:20;;;;;;;8.33;2.50;;;14.10;99.90;;;;;;5034962;28;20521;-83
2022/06/12 00:51:50;;;;;;;9.33;3.00;;;14.00;99.90;;;;;;5034577;28;20430;-83
2022/06/12 00:54:17;;;;;;;5.90;2.63;;;14.00;99.90;;;;;;5034743;28;20414;-83
2022/06/12 00:56:49;;;;;;;5.37;2.10;;;13.90;99.90;;;;;;5034814;28;20488;-86
2022/06/12 00:59:32;;;;;;;6.17;2.27;;;13.90;99.90;;;;;;5017055;28;20769;-86
2022/06/12 01:01:58;;;;;;;5.73;2.63;;;13.90;99.90;;;;;;5034587;28;20455;-86
2022/06/12 01:07:12;;;;;;;8.43;1.60;;;14.00;99.90;;;;;;5034342;28;20224;-86
2022/06/12 01:09:40;;;;;;;5.30;2.00;;;14.00;99.90;;;;;;5034584;28;20446;-86
2022/06/12 01:12:12;;;;;;;4.87;2.30;;;13.90;99.90;;;;;;5034477;28;20415;-86
2022/06/12 01:14:43;;;;;;;7.70;2.63;;;13.90;99.90;;;;;;5034483;28;20414;-82
2022/06/12 01:17:10;;;;;;;7.97;2.13;;;13.80;99.90;;;;;;5034419;28;20410;-82
2022/06/12 01:19:47;;;;;;;13.13;3.50;;;13.70;99.90;;;;;;5034301;28;20422;-84
2022/06/12 01:22:18;;;;;;;5.53;2.47;;;13.90;99.90;;;;;;5033936;28;21039;-84
2022/06/12 01:25:17;;;;;;;11.90;2.40;;;14.10;99.90;;;;;;5034148;28;20411;-84
2022/06/12 01:28:05;;;;;;;6.97;3.30;;;14.20;99.90;;;;;;5034365;28;20425;-84
2022/06/12 01:30:41;;;;;;;4.90;1.70;;;14.10;99.90;;;;;;5034198;28;20422;-84
2022/06/12 01:33:35;;;;;;;11.03;3.07;;;14.00;99.90;;;;;;5033982;28;20445;-84
2022/06/12 01:36:08;;;;;;;6.00;2.30;;;13.90;99.90;;;;;;5015974;28;20455;-84
2022/06/12 01:38:58;;;;;;;6.50;2.20;;;13.80;99.90;;;;;;5033904;28;20931;-84
2022/06/12 01:41:33;;;;;;;7.90;2.83;;;13.70;99.90;;;;;;5015616;28;20423;-84
2022/06/12 01:44:22;;;;;;;7.83;2.83;;;13.60;99.90;;;;;;5033492;28;20435;-83
2022/06/12 01:47:07;;;;;;;4.00;2.40;;;13.50;99.90;;;;;;5033819;28;20407;-84
2022/06/12 01:49:48;;;;;;;7.00;2.93;;;13.40;99.90;;;;;;5033599;28;20410;-83
2022/06/12 01:52:25;;;;;;;5.97;2.60;;;13.30;99.90;;;;;;5033305;28;20414;-83
2022/06/12 01:54:59;;;;;;;6.40;2.17;;;13.20;99.90;;;;;;5033597;28;20416;-83
2022/06/12 01:57:37;;;;;;;10.10;3.53;;;13.30;99.90;;;;;;5033650;28;20419;-83
2022/06/12 02:00:10;;;;;;;7.73;2.40;;;13.50;99.90;;;;;;5033620;28;20909;-83
2022/06/12 02:03:09;;;;;;;4.73;2.77;;;13.50;99.90;;;;;;5033412;28;20860;-83
2022/06/12 02:05:53;;;;;;;5.83;3.70;;;13.30;99.90;;;;;;5006685;28;20429;-83
2022/06/12 02:08:45;;;;;;;5.53;2.97;;;13.20;99.90;;;;;;5033403;28;20453;-82
2022/06/12 02:14:12;;;;;;;11.73;2.83;;;12.90;99.90;;;;;;5033607;28;20917;-83
2022/06/12 02:16:43;;;;;;;7.57;3.20;;;12.80;99.90;;;;;;5033280;28;20453;-83
2022/06/12 02:19:15;;;;;;;9.60;2.90;;;12.70;99.90;;;;;;5030361;28;20421;-83
2022/06/12 02:21:58;;;;;;;7.20;3.20;;;12.70;99.90;;;;;;5028277;28;20791;-83
2022/06/12 02:24:32;;;;;;;7.93;3.67;;;12.60;99.90;;;;;;5032913;28;20418;-82
2022/06/12 02:27:03;;;;;;;10.70;3.37;;;12.50;99.90;;;;;;5031607;28;20435;-83
2022/06/12 02:29:58;;;;;;;7.83;3.13;;;12.50;99.90;;;;;;5032584;28;20401;-83
2022/06/12 02:32:30;;;;;;;9.47;2.97;;;12.40;99.90;;;;;;5014067;28;20448;-83
2022/06/12 02:35:07;;;;;;;7.83;2.90;;;12.50;99.90;;;;;;5033052;28;20417;-83
2022/06/12 02:37:42;;;;;;;6.43;2.10;;;12.40;99.90;;;;;;5031697;28;20447;-84
2022/06/12 02:40:19;;;;;;;9.13;2.70;;;12.50;99.90;;;;;;5031780;28;20429;-86
2022/06/12 02:42:48;;;;;;;7.13;3.50;;;12.40;99.90;;;;;;5030928;28;20502;-86
2022/06/12 02:45:28;;;;;;;7.63;3.33;;;12.50;99.90;;;;;;5031369;28;20422;-84
2022/06/12 02:47:54;;;;;;;3.43;1.90;;;12.60;99.90;;;;;;5032836;28;20405;-85
2022/06/12 02:50:23;;;;;;;7.23;2.60;;;12.60;99.90;;;;;;5032900;28;20405;-85
2022/06/12 02:53:13;;;;;;;7.47;2.40;;;12.60;99.90;;;;;;5032420;28;20177;-85
2022/06/12 02:55:47;;;;;;;6.43;2.90;;;12.50;99.90;;;;;;5032835;28;20463;-85
2022/06/12 02:58:28;;;;;;;6.20;2.30;;;12.50;99.90;;;;;;5032726;28;20853;-86
2022/06/12 03:01:07;;;;;;;5.13;2.83;;;12.50;99.90;;;;;;5015128;28;20413;-82
2022/06/12 03:03:51;;;;;;;8.90;3.20;;;12.60;99.90;;;;;;5032641;28;20472;-82
2022/06/12 03:06:18;;;;;;;13.00;3.30;;;12.60;99.90;;;;;;5032510;28;20993;-83
2022/06/12 03:08:48;;;;;;;7.27;2.27;;;12.60;99.90;;;;;;5032762;28;20530;-84
2022/06/12 03:11:31;;;;;;;8.13;3.10;;;12.60;99.90;;;;;;5015085;28;20486;-82
2022/06/12 03:13:58;;;;;;;8.03;2.80;;;12.50;99.90;;;;;;5032701;28;20416;-82
2022/06/12 03:16:30;;;;;;;7.87;2.40;;;12.30;99.90;;;;;;5032639;28;20421;-82
2022/06/12 03:19:04;;;;;;;5.90;2.33;;;12.30;99.90;;;;;;5032581;28;20415;-82
2022/06/12 03:21:58;;;;;;;9.97;2.70;;;12.30;99.90;;;;;;5032212;28;20411;-84
2022/06/12 03:24:45;;;;;;;5.43;3.07;;;12.30;99.90;;;;;;5032556;28;20423;-82
2022/06/12 03:27:53;;;;;;;7.90;2.60;;;12.30;99.90;;;;;;5032556;28;20451;-83
2022/06/12 03:30:18;;;;;;;7.80;2.27;;;12.30;99.90;;;;;;4933310;29;20788;-82
2022/06/12 03:33:09;;;;;;;6.73;2.63;;;12.20;99.90;;;;;;5011883;28;20471;-83
2022/06/12 03:35:50;;;;;;;5.90;2.53;;;12.10;99.90;;;;;;5032065;28;20563;-83
2022/06/12 03:38:22;;;;;;;4.70;2.03;;;12.20;99.90;;;;;;5032464;28;20434;-82
2022/06/12 03:41:15;;;;;;;7.80;2.10;;;12.20;99.90;;;;;;5032493;28;20426;-83
2022/06/12 03:44:14;;;;;;;5.53;2.53;;;12.20;99.90;;;;;;5032368;28;20501;-83
2022/06/12 03:47:00;;;;;;;4.93;2.40;;;12.10;99.90;;;;;;5032408;28;20406;-84
2022/06/12 03:49:29;;;;;;;7.87;2.90;;;12.30;99.90;;;;;;5032324;28;20415;-82
2022/06/12 03:52:17;;;;;;;3.60;1.60;;;12.30;99.90;;;;;;5014291;28;20814;-82
2022/06/12 03:54:58;;;;;;;7.60;2.23;;;12.30;99.90;;;;;;5032284;28;20444;-83
2022/06/12 03:57:52;;;;;;;8.87;2.73;;;12.30;99.90;;;;;;5032392;28;20404;-82
2022/06/12 04:00:23;;;;;;;10.70;1.87;;;12.40;99.90;;;;;;5032309;28;20408;-85
2022/06/12 04:03:22;;;;;;;8.30;2.50;;;12.50;99.90;;;;;;5014342;28;20474;-85
2022/06/12 04:05:58;;;;;;;5.90;1.50;;;12.60;99.90;;;;;;5033529;28;20412;-82
2022/06/12 04:08:29;;;;;;;8.00;2.20;;;12.60;99.90;;;;;;5017926;28;20900;-82
2022/06/12 04:10:56;;;;;;;4.10;1.70;;;12.70;99.90;;;;;;5035683;28;20914;-83
2022/06/12 04:13:23;;;;;;;6.60;3.07;;;12.70;99.90;;;;;;5035600;28;20426;-84
2022/06/12 04:16:00;;;;;;;5.47;2.50;;;12.80;99.90;;;;;;5035622;28;20454;-84
2022/06/12 04:18:27;;;;;;;4.50;2.00;;;12.80;99.90;;;;;;5035540;28;20422;-84
2022/06/12 04:21:00;;;;;;;4.80;2.17;;;12.80;99.90;;;;;;5035004;28;20409;-82
2022/06/12 04:23:36;;;;;;;7.13;2.50;;;12.90;99.90;;;;;;5035322;28;20477;-82
2022/06/12 04:26:40;;;;;;;8.27;3.57;;;13.00;99.90;;;;;;5017750;28;20435;-84
2022/06/12 04:29:12;;;;;;;6.67;2.30;;;13.10;99.90;;;;;;5021177;28;20466;-84
2022/06/12 04:31:40;;;;;;;7.93;2.97;;;13.40;99.90;;;;;;5035094;28;20453;-85
2022/06/12 04:34:29;;;;;;;8.87;4.17;;;13.60;99.90;;;;;;5017523;28;20425;-85
2022/06/12 04:36:58;;;;;;;8.70;3.50;;;13.70;99.90;;;;;;5017153;28;20816;-84
2022/06/12 04:39:33;;;;;;;9.00;3.50;;;13.80;99.90;;;;;;5017359;28;20422;-84
2022/06/12 04:42:00;;;;;;;10.57;3.50;;;14.00;99.90;;;;;;5034816;28;20451;-85
2022/06/12 04:44:26;;;;;;;7.40;2.90;;;14.10;99.90;;;;;;5035119;28;20910;-85
2022/06/12 04:46:54;;;;;;;6.57;2.80;;;14.20;99.90;;;;;;5035004;28;20408;-86
2022/06/12 04:49:24;;;;;;;7.87;2.63;;;14.30;99.90;;;;;;5034990;28;20177;-85
2022/06/12 04:51:51;;;;;;;12.57;2.93;;;14.30;99.90;;;;;;5016747;28;20940;-85
2022/06/12 04:54:17;;;;;;;6.70;3.10;;;14.20;99.90;;;;;;5034858;28;20417;-85
2022/06/12 04:56:43;;;;;;;8.30;2.27;;;14.20;99.90;;;;;;5034879;28;20923;-83
2022/06/12 04:59:11;;;;;;;10.40;3.03;;;14.30;99.90;;;;;;5017080;28;20946;-85
2022/06/12 05:01:37;;;;;;;9.43;2.60;;;14.30;99.90;;;;;;5034559;28;21023;-86
2022/06/12 05:04:04;;;;;;;11.00;3.37;;;14.30;99.90;;;;;;5034611;28;20500;-85
2022/06/12 05:06:30;;;;;;;6.50;2.77;;;14.40;99.90;;;;;;5034237;28;20174;-87
2022/06/12 05:08:56;;;;;;;14.97;4.10;;;14.50;99.90;;;;;;5034684;28;20421;-87
2022/06/12 05:11:22;;;;;;;6.60;2.93;;;14.60;99.90;;;;;;5034596;28;20508;-83
2022/06/12 05:13:48;;;;;;;7.67;3.00;;;14.60;99.90;;;;;;5034458;28;20424;-88
2022/06/12 05:16:32;;;;;;;5.87;2.70;;;14.70;99.90;;;;;;5033791;28;20413;-85
2022/06/12 05:18:59;;;;;;;13.23;3.37;;;14.90;99.90;;;;;;5034373;28;20205;-85
2022/06/12 05:21:26;;;;;;;5.80;2.30;;;15.00;99.90;;;;;;5034097;28;20817;-82
2022/06/12 05:23:52;;;;;;;6.90;2.50;;;15.20;99.90;;;;;;5034188;28;20469;-85
2022/06/12 05:26:19;;;;;;;10.50;2.13;;;15.40;99.90;;;;;;5034158;28;20413;-81
2022/06/12 05:28:45;;;;;;;8.60;2.67;;;15.60;99.90;;;;;;5016508;28;20175;-82
2022/06/12 05:31:11;;;;;;;6.93;2.17;;;15.80;13.60;;;;;;5034023;28;20456;-83
2022/06/12 05:33:37;;;;;;;10.70;2.93;;;15.90;1.00;;;;;;5034150;28;20414;-82
2022/06/12 05:36:06;;;;;;;6.07;2.17;;;16.00;1.00;;;;;;5033738;28;20184;-82
2022/06/12 05:38:32;;;;;;;8.13;2.53;;;16.20;1.00;;;;;;5033961;28;20164;-82
2022/06/12 05:40:58;;;;;;;6.17;2.00;;;16.50;1.00;;;;;;5034148;28;20473;-84
2022/06/12 05:43:23;;;;;;;6.70;2.90;;;16.60;99.90;;;;;;5033860;28;20545;-83
2022/06/12 05:45:49;;;;;;;5.40;1.93;;;16.70;99.90;;;;;;5033903;28;20172;-84
2022/06/12 05:48:18;;;;;;;5.53;1.60;;;17.00;60.90;;;;;;5033872;28;20265;-83
2022/06/12 05:50:58;;;;;;;9.13;2.40;;;17.10;1.00;;;;;;5033327;28;20161;-82
2022/06/12 05:53:26;;;;;;;6.57;2.53;;;17.30;1.00;;;;;;5016251;28;20421;-86
2022/06/12 05:55:53;;;;;;;11.43;2.40;;;17.60;1.00;;;;;;5034057;28;20431;-85
2022/06/12 05:58:21;;;;;;;5.60;1.50;;;17.80;1.00;;;;;;5016010;28;20560;-87
2022/06/12 06:00:48;;;;;;;7.60;1.80;;;17.90;1.00;;;;;;5033688;28;20452;-84
2022/06/12 06:03:15;;;;;;;6.00;1.83;;;18.10;99.90;;;;;;5033492;28;20469;-84
2022/06/12 06:05:42;;;;;;;5.67;2.10;;;18.30;99.90;;;;;;5015385;28;20942;-86
2022/06/12 06:08:08;;;;;;;3.67;1.73;;;18.50;99.90;;;;;;5015925;28;20425;-85
2022/06/12 06:10:34;;;;;;;8.00;1.80;;;18.50;13.80;;;;;;5015767;28;20453;-84
2022/06/12 06:13:00;;;;;;;10.37;2.20;;;18.60;99.90;;;;;;5033245;28;20466;-85
2022/06/12 06:15:26;;;;;;;6.80;2.00;;;18.80;1.00;;;;;;5033301;28;20949;-86
2022/06/12 06:17:52;;;;;;;4.97;1.67;;;18.90;1.00;;;;;;5033397;28;20186;-84
2022/06/12 06:20:25;;;;;;;5.50;1.40;;;19.10;1.00;;;;;;5033080;28;20574;-84
2022/06/12 06:22:51;;;;;;;6.40;1.60;;;19.10;1.00;;;;;;5033250;28;20562;-82
2022/06/12 06:25:17;;;;;;;5.70;1.20;;;19.20;99.90;;;;;;5033132;28;20412;-83
2022/06/12 06:27:43;;;;;;;6.93;1.50;;;19.50;1.00;;;;;;5032757;28;20411;-83
2022/06/12 06:30:10;;;;;;;7.80;1.30;;;19.70;1.00;;;;;;5033168;28;20411;-85
2022/06/12 06:32:35;;;;;;;5.60;1.33;;;19.50;1.00;;;;;;5032928;28;20564;-83
2022/06/12 06:35:02;;;;;;;6.10;1.50;;;19.50;1.00;;;;;;5032762;28;20493;-84
2022/06/12 06:37:28;;;;;;;6.80;1.20;;;20.00;1.00;;;;;;5033059;28;20218;-84
2022/06/12 06:39:53;;;;;;;9.17;1.37;;;20.00;99.90;;;;;;5032974;28;20437;-86
2022/06/12 06:42:19;;;;;;;7.17;1.43;;;20.40;99.90;;;;;;5032948;28;20212;-83
2022/06/12 06:47:28;;;;;;;7.50;1.23;;;20.50;99.90;;;;;;5033299;28;20181;-84
2022/06/12 06:49:54;;;;;;;6.47;1.43;;;20.80;99.90;;;;;;5032491;28;20410;-85
2022/06/12 06:52:20;;;;;;;4.10;1.03;;;20.90;99.90;;;;;;5032840;28;20224;-85
2022/06/12 06:54:45;;;;;;;4.77;1.17;;;21.50;99.90;;;;;;5015096;28;20216;-85
2022/06/12 06:57:11;;;;;;;8.80;1.20;;;22.20;99.90;;;;;;5015299;28;20213;-86
2022/06/12 06:59:37;;;;;;;9.30;2.03;;;25.40;94.40;;;;;;5032808;28;20627;-83
2022/06/12 07:02:03;;;;;;;7.00;1.03;;;26.30;82.40;;;;;;5032718;28;20493;-85
2022/06/12 07:04:29;;;;;;;4.37;1.60;;;26.90;38.10;;;;;;5032631;28;20185;-84
2022/06/12 07:06:54;;;;;;;9.03;2.27;;;26.80;24.20;;;;;;5032533;28;20252;-85
2022/06/12 07:09:20;;;;;;;7.30;1.20;;;27.40;24.80;;;;;;5032606;28;20642;-84
2022/06/12 07:11:45;;;;;;;7.33;1.37;;;28.10;23.00;;;;;;5032628;28;20273;-86
2022/06/12 07:14:11;;;;;;;9.07;1.57;;;28.00;18.00;;;;;;5014998;28;20210;-86
2022/06/12 07:16:39;;;;;;;4.90;1.10;;;28.00;16.00;;;;;;5014928;28;20185;-84
2022/06/12 07:19:05;;;;;;;6.90;1.87;;;28.10;16.40;;;;;;5032550;28;20170;-83
2022/06/12 07:21:31;;;;;;;4.63;1.27;;;28.40;24.50;;;;;;5014550;28;20432;-86
2022/06/12 07:23:59;;;;;;;6.53;1.40;;;28.50;11.40;;;;;;5032375;28;20473;-84
2022/06/12 07:26:30;;;;;;;6.33;1.50;;;28.40;7.40;;;;;;5032579;28;20340;-87
2022/06/12 07:28:58;;;;;;;7.03;0.93;;;28.70;7.80;;;;;;5032435;28;20500;-85
2022/06/12 07:31:24;;;;;;;4.93;1.00;;;28.90;4.30;;;;;;5032185;28;20960;-85
2022/06/12 07:33:50;;;;;;;4.57;1.23;;;28.50;1.00;;;;;;5014746;28;20429;-85
2022/06/12 07:36:19;;;;;;;5.60;2.70;;;28.80;1.00;;;;;;5032132;28;20174;-84
2022/06/12 07:38:47;;;;;;;5.87;1.70;;;29.10;1.40;;;;;;5032556;28;20178;-83
2022/06/12 07:41:15;;;;;;;5.37;1.10;;;29.40;1.60;;;;;;5017045;28;20417;-85
2022/06/12 07:43:42;;;;;;;8.40;1.87;;;29.00;1.00;;;;;;5036029;28;20468;-87
2022/06/12 07:46:11;;;;;;;6.40;1.73;;;29.30;1.00;;;;;;5018690;28;20925;-88
2022/06/12 07:48:38;;;;;;;2.73;1.70;;;28.80;1.00;;;;;;5036173;28;20531;-87
2022/06/12 07:51:07;;;;;;;4.90;1.13;;;29.30;1.00;;;;;;5017888;28;20408;-85
2022/06/12 07:53:34;;;;;;;6.17;1.90;;;28.90;1.00;;;;;;5036047;28;20428;-84
2022/06/12 07:56:00;;;;;;;5.30;0.83;;;28.80;1.00;;;;;;5038853;28;20476;-85
2022/06/12 07:58:27;;;;;;;7.37;1.47;;;29.10;1.00;;;;;;5042498;28;20492;-84
2022/06/12 08:00:55;;;;;;;4.67;1.07;;;28.90;1.00;;;;;;5018530;28;20182;-84
2022/06/12 08:03:22;;;;;;;7.77;1.83;;;28.50;1.00;;;;;;5037173;28;20468;-84
2022/06/12 08:05:48;;;;;;;4.70;1.10;;;28.80;1.00;;;;;;5036174;28;20476;-84
2022/06/12 08:08:13;;;;;;;4.67;1.40;;;29.60;1.00;;;;;;5036021;28;20492;-83
2022/06/12 08:10:39;;;;;;;4.33;0.87;;;29.60;1.00;;;;;;5035769;28;20166;-85
2022/06/12 08:13:12;;;;;;;4.23;0.90;;;29.70;1.00;;;;;;5035642;28;20166;-84
2022/06/12 08:15:46;;;;;;;3.50;1.30;;;29.70;1.00;;;;;;5035566;28;20180;-85
2022/06/12 08:18:12;;;;;;;3.97;0.87;;;29.40;1.00;;;;;;5017833;28;20432;-84
2022/06/12 08:20:45;;;;;;;5.37;1.43;;;29.90;1.00;;;;;;5035189;28;20452;-85
2022/06/12 08:23:26;;;;;;;4.63;0.77;;;30.10;1.00;;;;;;5035406;28;20479;-84
2022/06/12 08:25:55;;;;;;;6.27;1.17;;;30.10;1.00;;;;;;5017689;28;20515;-83
2022/06/12 08:28:21;;;;;;;4.00;0.97;;;29.20;1.00;;;;;;5035362;28;20418;-85
2022/06/12 08:30:47;;;;;;;3.43;1.90;;;29.90;1.00;;;;;;5035380;28;20444;-84
2022/06/12 08:33:12;;;;;;;5.80;1.27;;;30.00;1.00;;;;;;5035119;28;20500;-85
2022/06/12 08:35:39;;;;;;;3.67;0.87;;;30.00;1.00;;;;;;5034858;28;20228;-84
2022/06/12 08:38:05;;;;;;;5.20;1.00;;;30.20;1.00;;;;;;5017441;28;20273;-85
2022/06/12 08:40:44;;;;;;;5.70;1.27;;;29.70;1.00;;;;;;5035163;28;20456;-85
2022/06/12 08:43:17;;;;;;;3.97;0.70;;;29.30;1.00;;;;;;5034996;28;20712;-85
2022/06/12 08:45:49;;;;;;;7.17;1.40;;;27.80;1.00;;;;;;5035100;28;20409;-84
2022/06/12 08:48:51;;;;;;;3.03;1.17;;;28.30;1.00;;;;;;5035027;28;20412;-84
2022/06/12 08:51:50;;;;;;;4.63;1.10;;;27.80;1.00;;;;;;5034331;28;20746;-84
2022/06/12 08:54:20;;;;;;;3.90;0.53;;;28.00;1.00;;;;;;5017093;28;20509;-84
2022/06/12 08:56:52;;;;;;;3.80;1.00;;;28.50;1.00;;;;;;5034879;28;20488;-85
2022/06/12 08:59:36;;;;;;;3.77;0.73;;;28.30;1.00;;;;;;5034836;28;20536;-84
2022/06/12 09:02:04;;;;;;;2.77;0.70;;;28.50;1.00;;;;;;5017212;28;20483;-84
2022/06/12 09:04:29;;;;;;;3.40;0.83;;;29.40;1.00;;;;;;5034352;28;20428;-84
2022/06/12 09:07:17;;;;;;;4.57;1.10;;;30.00;1.00;;;;;;5034687;28;20894;-84
2022/06/12 09:10:02;;;;;;;2.93;1.03;;;30.60;1.00;;;;;;5034509;28;20188;-85
2022/06/12 09:12:35;;;;;;;2.90;0.60;;;30.80;1.00;;;;;;5034479;28;20470;-85
2022/06/12 09:15:34;;;;;;;2.90;0.90;;;30.90;1.00;;;;;;5034601;28;20413;-84
2022/06/12 09:18:08;;;;;;;5.20;0.57;;;30.10;1.00;;;;;;5034524;28;20415;-86
2022/06/12 09:21:00;;;;;;;5.23;1.00;;;30.40;1.00;;;;;;5033989;28;20415;-86
2022/06/12 09:23:56;;;;;;;2.30;0.97;;;29.70;1.00;;;;;;5034200;28;20912;-86
2022/06/12 09:26:56;;;;;;;6.50;0.77;;;30.20;1.00;;;;;;5034187;28;20432;-84
2022/06/12 09:29:55;;;;;;;3.90;0.97;;;29.80;1.00;;;;;;5034252;28;20836;-84
2022/06/12 09:32:45;;;;;;;2.50;0.87;;;30.90;1.00;;;;;;5033964;28;20975;-85
2022/06/12 09:35:22;;;;;;;3.20;0.50;;;30.90;1.00;;;;;;5033727;28;20420;-85
2022/06/12 09:38:27;;;;;;;6.47;1.20;;;30.80;1.00;;;;;;5034296;28;20420;-86
2022/06/12 09:41:22;;;;;;;4.40;1.27;;;30.40;1.00;;;;;;5034048;28;20413;-84
2022/06/12 09:44:18;;;;;;;3.80;1.23;;;30.10;1.00;;;;;;5033747;28;20472;-88
2022/06/12 09:46:51;;;;;;;4.40;0.80;;;30.10;1.00;;;;;;5033922;28;20843;-86
2022/06/12 09:49:48;;;;;;;1.60;0.73;;;30.10;1.00;;;;;;5033528;28;20470;-86
2022/06/12 09:52:50;;;;;;;5.27;1.20;;;30.10;1.00;;;;;;5033761;28;20405;-87
2022/06/12 09:55:22;;;;;;;4.17;0.80;;;29.60;1.00;;;;;;5033752;28;20427;-85
2022/06/12 09:58:25;;;;;;;3.00;0.50;;;29.40;1.00;;;;;;5033883;28;20405;-85
2022/06/12 10:00:57;;;;;;;1.53;0.47;;;30.20;1.00;;;;;;5033349;28;20423;-84
2022/06/12 10:03:43;;;;;;;3.73;0.87;;;30.30;1.00;;;;;;5015133;28;20483;-87
2022/06/12 10:06:47;;;;;;;2.63;0.50;;;30.30;1.00;;;;;;5033120;28;20417;-85
2022/06/12 10:09:28;;;;;;;4.70;1.00;;;30.10;1.00;;;;;;5027579;28;20421;-86
2022/06/12 10:12:16;;;;;;;5.60;0.97;;;30.60;1.00;;;;;;5015652;28;20437;-85
2022/06/12 10:14:47;;;;;;;3.90;0.60;;;30.50;1.00;;;;;;5032646;28;20413;-85
2022/06/12 10:17:38;;;;;;;4.70;1.43;;;30.50;1.00;;;;;;5015608;28;20432;-84
2022/06/12 10:20:17;;;;;;;4.60;1.10;;;29.70;1.00;;;;;;5032906;28;20413;-84
2022/06/12 10:22:46;;;;;;;3.10;0.80;;;29.70;1.00;;;;;;5033083;28;20476;-85
2022/06/12 10:25:27;;;;;;;4.30;0.87;;;29.20;1.00;;;;;;5033147;28;20548;-85
2022/06/12 10:27:59;;;;;;;3.00;0.80;;;28.00;1.00;;;;;;5033214;28;20409;-84
2022/06/12 10:30:39;;;;;;;5.17;1.00;;;27.70;1.00;;;;;;5033089;28;20405;-85
2022/06/12 10:33:42;;;;;;;2.50;0.90;;;28.70;1.00;;;;;;5033229;28;20460;-85
2022/06/12 10:36:29;;;;;;;4.83;0.80;;;29.10;1.00;;;;;;5015160;28;20439;-84
2022/06/12 10:39:13;;;;;;;4.03;1.00;;;29.30;1.00;;;;;;5033206;28;20405;-85
2022/06/12 10:42:08;;;;;;;2.20;0.70;;;28.30;1.00;;;;;;5033061;28;20773;-84
2022/06/12 10:44:52;;;;;;;3.93;1.70;;;29.20;1.00;;;;;;5030281;28;20437;-85
2022/06/12 10:47:20;;;;;;;7.90;1.07;;;28.70;1.00;;;;;;5032921;28;20920;-86
2022/06/12 10:49:48;;;;;;;5.30;1.70;;;28.80;1.00;;;;;;5032532;28;20452;-86
2022/06/12 10:52:21;;;;;;;6.80;2.97;;;28.90;1.00;;;;;;5032871;28;20482;-84
2022/06/12 10:54:50;;;;;;;4.87;1.30;;;29.30;1.00;;;;;;5032912;28;20409;-86
2022/06/12 10:57:43;;;;;;;2.40;0.70;;;27.60;1.00;;;;;;5015522;28;20436;-85
2022/06/12 11:00:26;;;;;;;13.23;7.17;;;28.60;1.00;;;;;;5032733;28;20921;-86
2022/06/12 11:03:05;;;;;;;3.17;1.00;;;28.30;1.00;;;;;;5015069;28;20515;-84
2022/06/12 11:05:53;;;;;;;11.13;7.07;;;28.80;1.00;;;;;;5032515;28;20412;-84
2022/06/12 11:08:41;;;;;;;5.90;3.03;;;28.90;1.00;;;;;;5032781;28;20490;-82
2022/06/12 11:11:25;;;;;;;6.00;3.43;;;29.30;1.00;;;;;;5032723;28;20413;-86
2022/06/12 11:14:20;;;;;;;4.33;2.00;;;29.50;1.00;;;;;;5032961;28;20474;-84
2022/06/12 11:17:06;;;;;;;4.87;1.93;;;28.10;1.00;;;;;;5036759;28;20413;-85
2022/06/12 11:20:09;;;;;;;5.47;3.20;;;29.40;1.00;;;;;;5036361;28;20884;-86
2022/06/12 11:23:03;;;;;;;6.73;2.37;;;28.80;1.00;;;;;;5036467;28;20460;-87
2022/06/12 11:26:01;;;;;;;4.40;1.10;;;29.80;1.00;;;;;;5036654;28;20421;-86
2022/06/12 11:29:09;;;;;;;3.07;1.10;;;29.40;1.00;;;;;;5018999;28;20511;-86
2022/06/12 11:32:06;;;;;;;6.57;1.37;;;30.20;1.00;;;;;;5036302;28;20819;-83
2022/06/12 11:34:42;;;;;;;2.20;0.77;;;30.30;1.00;;;;;;5036244;28;20416;-83
2022/06/12 11:37:19;;;;;;;3.80;0.90;;;29.70;1.00;;;;;;5036629;28;20835;-86
2022/06/12 11:40:20;;;;;;;4.93;1.00;;;28.80;1.00;;;;;;5036460;28;20474;-83
2022/06/12 11:43:06;;;;;;;4.30;0.77;;;29.50;1.00;;;;;;5036392;28;20478;-84
2022/06/12 11:45:47;;;;;;;1.97;0.70;;;30.10;1.00;;;;;;5036298;28;20409;-85
2022/06/12 11:48:35;;;;;;;3.93;1.00;;;30.10;1.00;;;;;;5036125;28;20931;-85
2022/06/12 11:51:10;;;;;;;3.73;1.07;;;29.70;1.00;;;;;;5035754;28;20417;-81
2022/06/12 11:53:43;;;;;;;3.13;0.70;;;29.80;1.00;;;;;;5036044;28;20771;-82
2022/06/12 11:56:21;;;;;;;3.60;0.80;;;30.10;1.00;;;;;;5036084;28;20928;-85
2022/06/12 11:59:20;;;;;;;7.17;4.40;;;29.40;1.00;;;;;;5036056;28;20448;-85
2022/06/12 12:02:15;;;;;;;4.87;2.23;;;27.60;1.00;;;;;;4997121;28;20500;-86
2022/06/12 12:05:09;;;;;;;4.67;1.40;;;28.30;1.00;;;;;;5035495;28;20500;-84
2022/06/12 12:08:10;;;;;;;3.63;1.70;;;29.10;1.00;;;;;;5018135;28;20863;-86
2022/06/12 12:10:57;;;;;;;5.30;1.33;;;29.60;1.00;;;;;;5017980;28;20417;-85
2022/06/12 12:13:33;;;;;;;2.77;0.83;;;28.60;1.00;;;;;;5035686;28;20921;-85
2022/06/12 12:16:12;;;;;;;3.30;1.23;;;29.10;1.00;;;;;;5035658;28;20420;-85
2022/06/12 12:18:43;;;;;;;3.13;1.00;;;29.20;1.00;;;;;;5035687;28;20764;-84
2022/06/12 12:21:28;;;;;;;6.40;1.17;;;29.00;1.00;;;;;;5017421;28;20457;-83
2022/06/12 12:23:55;;;;;;;3.03;1.13;;;27.40;1.00;;;;;;5035360;28;20603;-85
2022/06/12 12:26:35;;;;;;;3.00;1.03;;;26.50;1.00;;;;;;5034736;28;20424;-85
2022/06/12 12:29:06;;;;;;;4.03;0.70;;;26.00;1.00;;;;;;5035304;28;20940;-85
2022/06/12 12:31:32;;;;;;;7.20;1.20;;;25.60;1.00;;;;;;5035108;28;20976;-84
2022/06/12 12:34:02;;;;;;;3.73;1.33;;;25.70;1.00;;;;;;5034885;28;20421;-87
2022/06/12 12:42:24;;;;;;;1.53;0.60;;;25.40;1.00;;;;;;5016277;28;20901;-91
2022/06/12 12:44:50;;;;;;;3.63;1.43;;;25.70;1.00;;;;;;4999651;28;20426;-89
2022/06/12 12:47:28;;;;;;;3.53;1.00;;;25.60;1.00;;;;;;4997593;28;20413;-85
2022/06/12 12:50:15;;;;;;;3.70;0.90;;;26.10;1.00;;;;;;4997006;28;20627;-86
2022/06/12 12:52:52;;;;;;;2.63;0.87;;;26.00;1.00;;;;;;5014344;28;20420;-86
2022/06/12 12:55:35;;;;;;;3.00;0.33;;;25.50;1.00;;;;;;4998367;28;20445;-89
2022/06/12 12:58:17;;;;;;;5.60;1.00;;;25.40;1.00;;;;;;5015520;28;20403;-86
2022/06/12 13:00:45;;;;;;;4.90;1.00;;;25.90;1.00;;;;;;5016513;28;20405;-87
2022/06/12 13:03:29;;;;;;;3.00;0.53;;;26.90;1.00;;;;;;5015308;28;20476;-88
2022/06/12 13:06:18;;;;;;;5.30;1.07;;;27.00;1.00;;;;;;4997570;28;20422;-88
2022/06/12 13:09:07;;;;;;;3.30;0.70;;;27.10;1.00;;;;;;4999877;28;20510;-90
2022/06/12 13:12:10;;;;;;;4.07;1.57;;;26.10;1.00;;;;;;5018003;28;20422;-84
2022/06/12 13:14:55;;;;;;;3.60;0.60;;;26.70;1.00;;;;;;4997144;28;20478;-89
2022/06/12 13:17:30;;;;;;;4.37;1.17;;;27.20;1.00;;;;;;5020060;28;20452;-88
2022/06/12 13:20:09;;;;;;;1.50;0.40;;;26.90;1.00;;;;;;4999141;28;20434;-89
2022/06/12 13:23:05;;;;;;;3.27;0.47;;;26.60;1.00;;;;;;5015307;28;20472;-82
2022/06/12 13:25:38;;;;;;;3.80;0.70;;;26.00;1.00;;;;;;5014908;28;20411;-90
2022/06/12 13:28:04;;;;;;;2.80;1.10;;;25.70;1.00;;;;;;5016055;28;20429;-91
2022/06/12 13:30:40;;;;;;;1.73;0.50;;;25.40;1.00;;;;;;4999251;28;20568;-90
2022/06/12 13:33:27;;;;;;;3.33;0.97;;;25.20;1.00;;;;;;5022125;28;20842;-85
2022/06/12 13:36:03;;;;;;;3.53;0.63;;;25.00;1.00;;;;;;5018312;28;20954;-92
2022/06/12 13:38:34;;;;;;;4.10;0.53;;;24.90;1.00;;;;;;4998806;28;20421;-92
2022/06/12 13:41:06;;;;;;;2.77;1.00;;;24.90;1.00;;;;;;5016859;28;20425;-92
2022/06/12 13:43:38;;;;;;;6.47;1.87;;;24.70;1.00;;;;;;5016248;28;21019;-91
2022/06/12 13:46:26;;;;;;;5.37;1.10;;;24.40;1.00;;;;;;5016004;28;20421;-93
2022/06/12 13:48:53;;;;;;;4.93;0.70;;;24.10;1.00;;;;;;5018728;28;20432;-85
2022/06/12 13:51:32;;;;;;;4.73;1.07;;;23.90;1.00;;;;;;5034572;28;20496;-88